الصفحة الرئيسية
METAR-TAF:

METAR-TAF

مطار :

مطار بكين العاصمة الدولي

بكين, جمهورية الصين الشعبية

دائرة عرض: 39-56N, خط طول: 116-17E, ارتفاع: 55 متر

مراقبة الطقس الحالي

تاريخ ووقت الإصدار 26 دقيقة قبل الساعة 23:30UTC
ريح 12 عقدة من الغرب/الشمال الغربي
درجة الحرارة 1°درجة مئوية
الرطوبة 37%
ضغط 1024 hPa
الرؤية 10 كم أو أكثر
الغيوم لا تقل 1500 م ولا وجود لمزنة ركامية السحاب الأسود

METAR: ZBAA 102330Z 30006MPS CAVOK 01/M12 Q1024 NOSIG

زمن: 07:56 (23:56 UTC)

توقعات

تاريخ ووقت الإصدار 2ساعات و 36 دقيقة قبل الساعة 21:20UTC
التوقعات صالحة من11 الساعة 00 UTC إلى 11 الساعة 24 UTC
ريح 8 عقدة من الشمال
الرؤية 10 كم أو أكثر
الغيوم لا تقل 1500 م ولا وجود لمزنة ركامية السحاب الأسود
أصبح
من 11 الساعة 01 UTC إلى 11 الساعة 02 UTC
ريح 17 عقدة من الشمال/الشمال الغربي تتزايد حتى 31 عقدة
أصبح
من 11 الساعة 08 UTC إلى 11 الساعة 09 UTC
ريح 8 عقدة من الشمال/الشمال الغربي

TAF: ZBAA 102120Z 1100/1124 36004MPS CAVOK TX05/1107Z TNM05/21Z BECMG 1101/1102 33009G16MPS BECMG 1108/1109 33004MPS

أرصاد الطقس والتوقعات من أكثر من 4000 مطار (تقارير الطقس للمطار METAR والتنبؤ بالطقس بالمطارTAF).

المحطات المتاحة هي النقط الصفراء والحمراء على الخريطة.

حرك المؤشر فوق النقطة لمعرفة اسم المحطة.

ثم انقر لمعرفة أرصاد وتوقعات الطقس.

لتغيير الخارطة: اضغط على الأزرار الخضراء مع رمز الصليب الأسود للتكبير. على الزر الأخضر مع شرطة للتصغير، أو على الأسهم الخضراء للخرائط المجاورة.


METAR-TAF: